Live aus Altenrhein
LIVE
LSZR 261620Z VRB03KT 9999 SCT043 BKN060 11/04 Q1021 NOSIG RMK L

People´s Info Center:

Öffnungszeiten Mo-Fr, 8-18 Uhr

 

info@peoples.ch

 
Aus Österreich:

T: +43 (0)5572 203 610

 

Aus CH / LI / DE:

T: +41 (0)71 858 51 60

 

Flughafen St. Gallen-Altenrhein: Ankunft

 

Aktueller Flugstatus Ankünfte
Plan Erw. von Flug Info
10:00 10:00 Wien PE121
gelandet
19:00 19:00 Wien PE123
erwartet
erwartet um 19.35 Uhr in Altenrhein
20:00 20:00 Wien PE125
planmässig